Carp, Nevada
Current Conditions -  °F | °C
As of 4:35 AM on Thursday 23 Oct 2014 (Local Time) from KSGU Reporting Station
Clear Clear  
Wind Chill: 54°   Ceiling: Unl
Heat Index: 54°   Visibility: 10mi
Dew Point: 30°   Wind: 6mph
Humidity: 41%   Direction: 190°S
Pressure: 30.14"   Gusts: NA
Location:  37.2951°N, 114.495°W
Report Text: KSGU 231135Z AUTO 19005KT 10SM CLR 12/M01 A3014 RMK AO1
Loading
Personal Weather Stations






























Interactive Weather Map
Tropical Storm Tracking
New forecast layout! Learn more

10-Day Weather Forecast

Advertisements
Track Severe Weather on mobile